21NC weather

Isbell Heliport
Hertford, North Carolina, United States

Public forecast

Using degrees Fahrenheit for public forecast. Weather courtesy of forecast.io.

METAR (pilot weather report)

Closest report is Elizabeth City Regional Airport & Coast Guard Air Station, 6.7 nm (12.5 km) NE. Retrieved 2019/04/20 09:54 UTC (42 minutes ago):

KECG 200954Z AUTO 18007KT 7SM RA SCT060 BKN070 OVC110 19/17 A2964 RMK AO2 SLP035 P0010 T01890167

TAF (pilot weather forecast)

Closest forecast is Elizabeth City Regional Airport & Coast Guard Air Station, 6.7 nm (12.5 km) NE. Retrieved 2019/04/20 10:03 UTC (33 minutes ago):

TAF KECG 200959Z 2010/2106 18007KT P6SM RA SCT060 BKN070 OVC110 FM201300 20013G20KT P6SM BKN100 FM202000 18013G21KT P6SM BKN080